createdAt,value
2018-10-17T00:01:56.077Z,22.90
2018-10-17T00:04:24.626Z,23.37
2018-10-17T00:06:53.177Z,25.37
2018-10-17T00:09:21.756Z,25.27
2018-10-17T00:11:50.235Z,26.00
2018-10-17T00:14:18.780Z,25.93
2018-10-17T00:16:47.375Z,26.07
2018-10-17T00:19:15.949Z,25.50
2018-10-17T00:21:44.467Z,26.47
2018-10-17T00:24:13.029Z,27.93
2018-10-17T00:26:41.549Z,30.47
2018-10-17T00:29:10.128Z,26.47
2018-10-17T00:31:38.604Z,25.20
2018-10-17T00:34:07.118Z,26.00
2018-10-17T00:36:35.624Z,23.03
2018-10-17T00:39:05.581Z,22.80
2018-10-17T00:41:34.124Z,24.67
2018-10-17T00:44:02.693Z,23.80
2018-10-17T00:46:31.200Z,23.63
2018-10-17T00:48:59.738Z,24.23
2018-10-17T00:51:28.250Z,25.03
2018-10-17T00:53:56.762Z,26.77
2018-10-17T00:56:25.308Z,27.43
2018-10-17T00:59:04.058Z,34.20
2018-10-17T01:01:32.559Z,33.80
2018-10-17T01:04:01.410Z,30.93
2018-10-17T01:06:30.389Z,31.20
2018-10-17T01:08:58.920Z,31.53
2018-10-17T01:11:27.752Z,30.30
2018-10-17T01:13:56.329Z,31.13
2018-10-17T01:16:24.871Z,29.67
2018-10-17T01:18:53.492Z,29.83
2018-10-17T01:21:21.968Z,29.43
2018-10-17T01:23:50.530Z,29.07
2018-10-17T01:26:19.026Z,29.53
2018-10-17T01:28:47.687Z,28.40
2018-10-17T01:31:16.242Z,28.43
2018-10-17T01:33:44.816Z,29.33
2018-10-17T01:36:13.312Z,27.97
2018-10-17T01:38:41.869Z,27.00
2018-10-17T01:41:10.437Z,28.93
2018-10-17T01:43:38.985Z,30.13
2018-10-17T01:46:07.480Z,33.20
2018-10-17T01:48:36.009Z,34.93
2018-10-17T01:51:04.588Z,34.70
2018-10-17T01:53:33.186Z,33.33
2018-10-17T01:56:01.711Z,32.07
2018-10-17T01:58:30.223Z,31.13
2018-10-17T02:00:58.794Z,30.60
2018-10-17T02:03:27.268Z,31.00
2018-10-17T02:05:55.828Z,29.77
2018-10-17T02:08:24.573Z,28.10
2018-10-17T02:10:53.185Z,27.53
2018-10-17T02:13:22.549Z,24.70
2018-10-17T02:15:53.528Z,25.73
2018-10-17T02:18:22.289Z,26.93
2018-10-17T02:20:51.239Z,25.60
2018-10-17T02:23:19.735Z,25.20
2018-10-17T02:25:48.229Z,25.20
2018-10-17T02:28:16.777Z,24.27
2018-10-17T02:30:45.276Z,23.23
2018-10-17T02:33:13.827Z,25.27
2018-10-17T02:35:42.443Z,22.63
2018-10-17T02:38:10.983Z,22.43
2018-10-17T02:40:39.483Z,22.83
2018-10-17T02:43:07.996Z,22.17
2018-10-17T02:45:36.588Z,22.27
2018-10-17T02:48:05.139Z,21.97
2018-10-17T02:50:33.631Z,21.53
2018-10-17T02:53:02.223Z,22.27
2018-10-17T02:55:30.857Z,20.00
2018-10-17T02:57:59.383Z,19.90
2018-10-17T03:00:28.021Z,20.00
2018-10-17T03:02:56.536Z,18.50
2018-10-17T03:05:25.033Z,20.50
2018-10-17T03:07:53.578Z,18.40
2018-10-17T03:10:22.100Z,17.77
2018-10-17T03:12:50.637Z,16.60
2018-10-17T03:15:19.131Z,17.00
2018-10-17T03:17:47.671Z,16.67
2018-10-17T03:20:16.196Z,16.93
2018-10-17T03:22:44.719Z,17.13
2018-10-17T03:25:13.343Z,17.67
2018-10-17T03:27:41.900Z,17.43
2018-10-17T03:30:10.434Z,16.97
2018-10-17T03:32:38.960Z,16.97
2018-10-17T03:35:07.835Z,17.73
2018-10-17T03:37:36.663Z,17.67
2018-10-17T03:40:06.013Z,18.43
2018-10-17T03:42:34.843Z,19.10
2018-10-17T03:45:03.362Z,21.47
2018-10-17T03:47:31.892Z,22.27
2018-10-17T03:50:00.434Z,21.90
2018-10-17T03:52:28.978Z,21.27
2018-10-17T03:54:57.499Z,20.30
2018-10-17T03:57:26.000Z,19.53
2018-10-17T03:59:54.538Z,21.40
2018-10-17T04:02:23.049Z,20.30
2018-10-17T04:04:51.617Z,23.37
2018-10-17T04:07:20.261Z,22.40
2018-10-17T04:09:48.780Z,19.30
2018-10-17T04:12:17.298Z,19.90
2018-10-17T04:14:45.828Z,20.13
2018-10-17T04:17:14.448Z,23.77
2018-10-17T04:19:42.922Z,23.67
2018-10-17T04:22:11.427Z,22.90
2018-10-17T04:24:40.032Z,22.93
2018-10-17T04:27:08.549Z,23.67
2018-10-17T04:29:37.079Z,22.00
2018-10-17T04:32:06.364Z,23.23
2018-10-17T04:34:34.920Z,23.07
2018-10-17T04:37:03.433Z,24.37
2018-10-17T04:39:31.984Z,23.53
2018-10-17T04:42:00.527Z,25.10
2018-10-17T04:44:29.069Z,25.83
2018-10-17T04:46:57.608Z,23.40
2018-10-17T04:49:27.096Z,22.90
2018-10-17T04:51:55.660Z,24.03
2018-10-17T04:54:24.197Z,25.20
2018-10-17T04:56:52.691Z,26.13
2018-10-17T04:59:21.284Z,27.23
2018-10-17T05:01:49.783Z,25.67
2018-10-17T05:04:18.339Z,22.70
2018-10-17T05:06:46.928Z,22.90
2018-10-17T05:09:15.449Z,21.33
2018-10-17T05:11:43.949Z,22.53
2018-10-17T05:14:12.476Z,22.10
2018-10-17T05:16:41.052Z,21.97
2018-10-17T05:19:09.653Z,20.73
2018-10-17T05:21:38.113Z,21.20
2018-10-17T05:24:06.644Z,22.50
2018-10-17T05:26:35.206Z,21.47
2018-10-17T05:29:03.744Z,20.47
2018-10-17T05:31:32.239Z,20.50
2018-10-17T05:34:00.772Z,20.50
2018-10-17T05:36:29.279Z,20.30
2018-10-17T05:38:57.800Z,19.20
2018-10-17T05:41:27.114Z,20.50
2018-10-17T05:43:55.599Z,21.50
2018-10-17T05:46:24.241Z,22.37
2018-10-17T05:48:52.825Z,23.90
2018-10-17T05:51:21.372Z,24.27
2018-10-17T05:53:49.883Z,22.00
2018-10-17T05:56:18.432Z,22.60
2018-10-17T05:58:46.941Z,21.60
2018-10-17T06:01:15.481Z,23.77
2018-10-17T06:03:43.993Z,24.30
2018-10-17T06:06:13.345Z,24.97
2018-10-17T06:08:41.968Z,25.83
2018-10-17T06:11:10.563Z,24.03
2018-10-17T06:13:39.019Z,23.23
2018-10-17T06:16:07.556Z,20.90
2018-10-17T06:18:36.070Z,20.30
2018-10-17T06:21:05.115Z,20.23
2018-10-17T06:23:34.014Z,19.50
2018-10-17T06:26:02.584Z,19.23
2018-10-17T06:28:31.082Z,21.47
2018-10-17T06:30:59.610Z,25.23
2018-10-17T06:33:28.125Z,25.63
2018-10-17T06:35:56.665Z,26.20
2018-10-17T06:38:25.162Z,30.03
2018-10-17T06:40:53.914Z,87.33
2018-10-17T06:43:22.485Z,68.17
2018-10-17T06:45:51.052Z,62.00
2018-10-17T06:48:19.655Z,50.87
2018-10-17T06:50:48.218Z,45.13
2018-10-17T06:53:16.814Z,41.93
2018-10-17T06:55:45.244Z,35.37
2018-10-17T06:58:13.777Z,33.07
2018-10-17T07:00:42.424Z,31.63
2018-10-17T07:03:10.944Z,33.03
2018-10-17T07:05:39.469Z,30.53
2018-10-17T07:08:07.985Z,29.27
2018-10-17T07:10:36.564Z,28.17
2018-10-17T07:13:05.173Z,28.73
2018-10-17T07:15:33.849Z,30.23
2018-10-17T07:18:02.271Z,30.37
2018-10-17T07:20:30.760Z,28.77
2018-10-17T07:22:59.294Z,34.37
2018-10-17T07:25:27.951Z,38.97
2018-10-17T07:27:56.476Z,34.23
2018-10-17T07:30:25.083Z,30.33
2018-10-17T07:32:53.654Z,29.83
2018-10-17T07:35:22.179Z,28.63
2018-10-17T07:37:50.741Z,29.20
2018-10-17T07:40:19.396Z,27.97
2018-10-17T07:42:47.940Z,26.27
2018-10-17T07:45:16.672Z,25.37
2018-10-17T07:47:45.260Z,26.07
2018-10-17T07:50:13.851Z,26.20
2018-10-17T07:52:42.477Z,25.50
2018-10-17T07:55:12.262Z,25.90
2018-10-17T07:57:40.919Z,26.77
2018-10-17T08:00:11.950Z,27.20
2018-10-17T08:02:41.411Z,26.40
2018-10-17T08:05:10.899Z,25.97
2018-10-17T08:07:39.447Z,26.10
2018-10-17T08:10:09.301Z,24.30
2018-10-17T08:12:38.114Z,24.30
2018-10-17T08:15:07.736Z,23.33
2018-10-17T08:17:36.511Z,22.67
2018-10-17T08:20:05.950Z,22.37
2018-10-17T08:22:34.481Z,21.87
2018-10-17T08:25:03.006Z,22.30
2018-10-17T08:27:31.705Z,21.67
2018-10-17T08:30:00.178Z,21.97
2018-10-17T08:32:28.729Z,22.13
2018-10-17T08:34:57.235Z,21.43
2018-10-17T08:37:26.600Z,21.10
2018-10-17T08:39:55.020Z,21.00
2018-10-17T08:42:23.588Z,21.50
2018-10-17T08:44:52.151Z,20.90
2018-10-17T08:47:20.684Z,20.97
2018-10-17T08:49:49.213Z,21.97
2018-10-17T08:52:17.750Z,21.70
2018-10-17T08:54:46.284Z,23.07
2018-10-17T08:57:14.824Z,23.47
2018-10-17T08:59:43.380Z,23.80
2018-10-17T09:02:11.958Z,21.93
2018-10-17T09:04:40.453Z,21.80
2018-10-17T09:07:08.996Z,20.60
2018-10-17T09:09:37.505Z,21.30
2018-10-17T09:12:06.031Z,21.17
2018-10-17T09:14:34.590Z,21.00
2018-10-17T09:17:03.113Z,20.13
2018-10-17T09:19:31.810Z,20.13
2018-10-17T09:22:00.573Z,19.63
2018-10-17T09:24:28.778Z,20.57
2018-10-17T09:26:57.315Z,21.53
2018-10-17T09:29:25.847Z,19.80
2018-10-17T09:31:54.360Z,20.20
2018-10-17T09:34:22.918Z,18.80
2018-10-17T09:36:51.437Z,18.73
2018-10-17T09:39:19.987Z,21.93
2018-10-17T09:41:48.513Z,22.07
2018-10-17T09:44:17.050Z,21.43
2018-10-17T09:46:45.573Z,22.23
2018-10-17T09:49:14.128Z,20.83
2018-10-17T09:51:42.629Z,19.23
2018-10-17T09:54:11.186Z,19.30
2018-10-17T09:56:39.689Z,21.20
2018-10-17T09:59:08.279Z,22.43
2018-10-17T10:01:42.140Z,21.20
2018-10-17T10:04:11.310Z,21.50
2018-10-17T10:06:39.837Z,21.93
2018-10-17T10:09:09.339Z,21.83
2018-10-17T10:11:38.152Z,21.20
2018-10-17T10:14:06.699Z,22.30
2018-10-17T10:16:35.508Z,20.30
2018-10-17T10:19:04.082Z,21.80
2018-10-17T10:21:32.612Z,19.40
2018-10-17T10:24:01.657Z,21.03
2018-10-17T10:26:30.168Z,20.47
2018-10-17T10:28:59.040Z,21.20
2018-10-17T10:31:27.692Z,21.40
2018-10-17T10:33:56.311Z,20.20
2018-10-17T10:36:24.762Z,20.27
2018-10-17T10:38:53.308Z,20.93
2018-10-17T10:41:21.805Z,20.60
2018-10-17T10:43:50.344Z,20.00
2018-10-17T10:46:19.218Z,20.57
2018-10-17T10:48:48.431Z,19.83
2018-10-17T10:51:17.050Z,20.83
2018-10-17T10:53:45.602Z,20.47
2018-10-17T10:56:14.270Z,20.00
2018-10-17T10:58:43.130Z,20.20
2018-10-17T11:01:12.145Z,22.60
2018-10-17T11:03:41.117Z,20.27
2018-10-17T11:06:09.917Z,22.20
2018-10-17T11:08:38.630Z,19.87
2018-10-17T11:11:07.422Z,23.00
2018-10-17T11:13:36.391Z,22.77
2018-10-17T11:16:05.293Z,22.00
2018-10-17T11:18:33.897Z,19.97
2018-10-17T11:21:02.587Z,22.97
2018-10-17T11:23:31.068Z,20.77
2018-10-17T11:25:59.723Z,17.80
2018-10-17T11:28:28.451Z,18.13
2018-10-17T11:30:56.988Z,18.83
2018-10-17T11:33:25.646Z,21.20
2018-10-17T11:35:55.339Z,18.85
2018-10-17T11:38:23.880Z,22.20
2018-10-17T11:40:52.732Z,21.37
2018-10-17T11:43:21.427Z,20.10
2018-10-17T11:45:50.283Z,18.23
2018-10-17T11:48:18.889Z,22.02
2018-10-17T11:50:48.543Z,22.20
2018-10-17T11:53:18.321Z,17.52
2018-10-17T11:55:47.890Z,17.48
2018-10-17T11:58:17.791Z,17.55
2018-10-17T12:00:47.687Z,21.07
2018-10-17T12:03:17.547Z,17.75
2018-10-17T12:05:46.208Z,19.32
2018-10-17T12:08:14.856Z,18.07
2018-10-17T12:10:43.808Z,19.25
2018-10-17T12:13:12.741Z,19.60
2018-10-17T12:15:43.004Z,20.88
2018-10-17T12:18:12.234Z,17.73
2018-10-17T12:20:41.003Z,20.43
2018-10-17T12:23:09.594Z,18.37
2018-10-17T12:25:39.268Z,19.82
2018-10-17T12:28:08.236Z,20.45
2018-10-17T12:30:36.929Z,20.23
2018-10-17T12:33:06.138Z,19.77
2018-10-17T12:35:35.884Z,21.35
2018-10-17T12:38:04.725Z,22.07
2018-10-17T12:40:34.157Z,21.75
2018-10-17T12:43:03.107Z,23.27
2018-10-17T12:45:32.189Z,19.48
2018-10-17T12:48:01.195Z,17.92
2018-10-17T12:50:30.772Z,19.67
2018-10-17T12:53:00.191Z,20.00
2018-10-17T12:55:28.957Z,20.88
2018-10-17T12:57:57.640Z,18.12
2018-10-17T13:00:27.818Z,19.07
2018-10-17T13:02:57.175Z,18.98
2018-10-17T13:05:40.522Z,16.52
2018-10-17T13:08:09.692Z,17.73
2018-10-17T13:10:38.406Z,16.75
2018-10-17T13:13:07.923Z,15.00
2018-10-17T13:15:37.139Z,17.77
2018-10-17T13:18:06.781Z,17.82
2018-10-17T13:20:36.078Z,14.98
2018-10-17T13:23:04.687Z,14.70
2018-10-17T13:25:34.153Z,15.53
2018-10-17T13:28:03.765Z,16.80
2018-10-17T13:30:33.535Z,14.28
2018-10-17T13:33:03.273Z,13.55
2018-10-17T13:35:32.375Z,13.40
2018-10-17T13:38:01.877Z,12.80
2018-10-17T13:40:31.301Z,12.93
2018-10-17T13:42:59.930Z,12.13
2018-10-17T13:45:29.076Z,12.18
2018-10-17T13:47:58.949Z,13.13
2018-10-17T13:50:27.473Z,12.30
2018-10-17T13:52:56.031Z,13.15
2018-10-17T13:55:24.533Z,13.65
2018-10-17T13:57:53.148Z,12.53
2018-10-17T14:00:21.693Z,12.73
2018-10-17T14:02:50.264Z,13.62
2018-10-17T14:05:19.752Z,12.45
2018-10-17T14:07:49.451Z,12.63
2018-10-17T14:10:17.965Z,13.05
2018-10-17T14:12:46.595Z,12.55
2018-10-17T14:15:15.276Z,11.12
2018-10-17T14:17:44.245Z,11.00
2018-10-17T14:20:13.129Z,11.03
2018-10-17T14:22:41.688Z,10.75
2018-10-17T14:25:10.462Z,10.03
2018-10-17T14:27:39.078Z,10.70
2018-10-17T14:30:08.277Z,10.15
2018-10-17T14:32:37.280Z,10.28
2018-10-17T14:35:08.577Z,10.03
2018-10-17T14:37:37.193Z,9.18
2018-10-17T14:40:06.497Z,10.48
2018-10-17T14:42:35.036Z,9.85
2018-10-17T14:45:04.078Z,9.48
2018-10-17T14:47:32.655Z,9.35
2018-10-17T14:50:01.171Z,8.10
2018-10-17T14:52:29.800Z,10.53
2018-10-17T14:54:58.302Z,9.40
2018-10-17T14:57:26.861Z,8.28
2018-10-17T14:59:56.353Z,11.15
2018-10-17T15:02:26.515Z,13.08
2018-10-17T15:04:55.148Z,11.73
2018-10-17T15:07:23.833Z,11.95
2018-10-17T15:09:52.427Z,17.52
2018-10-17T15:12:21.607Z,13.47
2018-10-17T15:14:50.134Z,16.85
2018-10-17T15:17:19.317Z,14.60
2018-10-17T15:19:49.424Z,15.70
2018-10-17T15:22:20.041Z,15.30
2018-10-17T15:24:50.782Z,15.40
2018-10-17T15:27:21.072Z,12.47
2018-10-17T15:29:51.209Z,10.90
2018-10-17T15:32:21.444Z,10.10
2018-10-17T15:34:51.981Z,10.33
2018-10-17T15:37:22.723Z,9.60
2018-10-17T15:39:53.521Z,15.83
2018-10-17T15:42:23.821Z,17.77
2018-10-17T15:44:54.564Z,19.37
2018-10-17T15:47:25.033Z,26.87
2018-10-17T15:49:54.704Z,27.77
2018-10-17T15:52:23.854Z,17.23
2018-10-17T15:54:52.516Z,16.17
2018-10-17T15:57:21.278Z,13.20
2018-10-17T15:59:50.976Z,11.23
2018-10-17T16:02:20.386Z,12.23
2018-10-17T16:04:49.810Z,10.73
2018-10-17T16:07:19.040Z,14.20
2018-10-17T16:09:48.295Z,15.20
2018-10-17T16:12:17.662Z,16.87
2018-10-17T16:14:47.631Z,13.57
2018-10-17T16:17:16.902Z,12.67
2018-10-17T16:19:46.436Z,11.43
2018-10-17T16:22:15.331Z,11.20
2018-10-17T16:24:45.692Z,10.60
2018-10-17T16:27:14.964Z,10.53
2018-10-17T16:29:44.534Z,11.03
2018-10-17T16:32:14.999Z,10.60
2018-10-17T16:34:45.816Z,14.17
2018-10-17T16:37:15.131Z,13.37
2018-10-17T16:39:43.656Z,13.50
2018-10-17T16:42:13.557Z,11.83
2018-10-17T16:44:43.460Z,12.13
2018-10-17T16:47:12.008Z,12.57
2018-10-17T16:49:40.624Z,11.73
2018-10-17T16:52:09.083Z,11.50
2018-10-17T16:54:37.669Z,11.60
2018-10-17T16:57:09.173Z,11.10
2018-10-17T16:59:41.352Z,12.40
2018-10-17T17:02:11.555Z,11.70
2018-10-17T17:04:42.653Z,12.47
2018-10-17T17:07:11.192Z,14.53
2018-10-17T17:09:39.734Z,13.13
2018-10-17T17:12:08.437Z,13.40
2018-10-17T17:14:37.052Z,13.63
2018-10-17T17:17:05.576Z,12.40
2018-10-17T17:19:34.144Z,12.53
2018-10-17T17:22:02.661Z,13.10
2018-10-17T17:24:31.252Z,13.30
2018-10-17T17:26:59.873Z,12.73
2018-10-17T17:29:28.456Z,13.23
2018-10-17T17:31:57.033Z,13.37
2018-10-17T17:34:25.616Z,14.50
2018-10-17T17:36:54.128Z,14.90
2018-10-17T17:39:23.636Z,14.70
2018-10-17T17:41:52.210Z,15.50
2018-10-17T17:44:20.769Z,16.65
2018-10-17T17:46:49.375Z,15.93
2018-10-17T17:49:18.059Z,16.63
2018-10-17T17:51:46.607Z,16.30
2018-10-17T17:54:15.202Z,16.20
2018-10-17T17:56:43.746Z,16.40
2018-10-17T17:59:12.305Z,15.60
2018-10-17T18:01:40.859Z,16.00
2018-10-17T18:04:09.420Z,18.27
2018-10-17T18:06:38.082Z,18.77
2018-10-17T18:09:09.204Z,17.27
2018-10-17T18:11:37.722Z,17.37
2018-10-17T18:16:42.220Z,16.70
2018-10-17T18:19:10.758Z,16.90
2018-10-17T18:21:39.286Z,16.77
2018-10-17T18:24:07.816Z,16.63
2018-10-17T18:26:36.331Z,17.33
2018-10-17T18:29:04.928Z,16.43
2018-10-17T18:31:33.515Z,17.43
2018-10-17T18:34:02.157Z,16.33
2018-10-17T18:36:31.232Z,17.87
2018-10-17T18:38:59.971Z,17.07
2018-10-17T18:41:28.563Z,18.23
2018-10-17T18:43:57.091Z,17.40
2018-10-17T18:46:25.668Z,18.07
2018-10-17T18:48:54.186Z,18.77
2018-10-17T18:51:22.808Z,19.23
2018-10-17T18:53:51.403Z,19.00
2018-10-17T18:56:19.956Z,19.10
2018-10-17T18:58:48.487Z,21.53
2018-10-17T19:01:17.049Z,22.27
2018-10-17T19:03:46.408Z,21.27
2018-10-17T19:06:15.040Z,21.37
2018-10-17T19:08:43.563Z,22.07
2018-10-17T19:11:12.111Z,21.53
2018-10-17T19:13:40.618Z,21.97
2018-10-17T19:16:09.318Z,23.80
2018-10-17T19:18:38.440Z,23.07
2018-10-17T19:21:07.125Z,23.50
2018-10-17T19:23:35.641Z,23.10
2018-10-17T19:26:04.461Z,23.43
2018-10-17T19:28:34.158Z,23.83
2018-10-17T19:31:02.742Z,24.40
2018-10-17T19:33:31.241Z,25.47
2018-10-17T19:35:59.914Z,26.57
2018-10-17T19:38:30.141Z,27.93
2018-10-17T19:40:58.737Z,28.03
2018-10-17T19:43:27.445Z,26.87
2018-10-17T19:45:55.986Z,23.73
2018-10-17T19:48:24.501Z,25.77
2018-10-17T19:50:53.292Z,30.30
2018-10-17T19:53:21.913Z,23.33
2018-10-17T19:55:50.510Z,23.53
2018-10-17T19:58:19.034Z,25.03
2018-10-17T20:00:47.588Z,23.33
2018-10-17T20:03:16.383Z,23.87
2018-10-17T20:05:44.907Z,24.43
2018-10-17T20:08:13.828Z,24.37
2018-10-17T20:10:42.371Z,23.53
2018-10-17T20:13:10.910Z,26.20
2018-10-17T20:15:39.468Z,26.13
2018-10-17T20:18:08.024Z,26.47
2018-10-17T20:20:36.578Z,25.37
2018-10-17T20:25:25.429Z,25.33
2018-10-17T20:27:54.038Z,27.20
2018-10-17T20:30:22.559Z,25.77
2018-10-17T20:32:51.188Z,26.37
2018-10-17T20:35:19.964Z,27.50
2018-10-17T20:37:48.689Z,27.40
2018-10-17T20:40:17.500Z,26.77
2018-10-17T20:42:47.065Z,26.00
2018-10-17T20:45:15.679Z,26.43
2018-10-17T20:47:44.688Z,25.10
2018-10-17T20:50:13.233Z,25.53
2018-10-17T20:52:41.797Z,27.27
2018-10-17T20:55:10.336Z,26.17
2018-10-17T20:57:38.879Z,28.27
2018-10-17T21:00:08.215Z,26.60
2018-10-17T21:02:36.994Z,26.77
2018-10-17T21:05:06.301Z,26.80
2018-10-17T21:07:34.987Z,27.03
2018-10-17T21:10:03.627Z,26.57
2018-10-17T21:12:32.165Z,27.43
2018-10-17T21:15:00.676Z,27.47
2018-10-17T21:17:29.310Z,26.77
2018-10-17T21:19:57.840Z,27.20
2018-10-17T21:22:26.360Z,26.43
2018-10-17T21:24:54.895Z,27.43
2018-10-17T21:27:23.411Z,25.93
2018-10-17T21:29:51.992Z,26.03
2018-10-17T21:32:20.501Z,25.90
2018-10-17T21:34:49.041Z,28.90
2018-10-17T21:37:17.605Z,26.80
2018-10-17T21:39:46.112Z,28.43
2018-10-17T21:42:14.649Z,28.57
2018-10-17T21:44:43.166Z,29.40
2018-10-17T21:47:11.773Z,30.13
2018-10-17T21:49:40.253Z,30.53
2018-10-17T21:52:08.826Z,30.13
2018-10-17T21:54:37.334Z,29.67
2018-10-17T21:57:06.241Z,28.43
2018-10-17T21:59:34.736Z,28.07
2018-10-17T22:02:03.338Z,27.80
2018-10-17T22:04:31.886Z,27.37
2018-10-17T22:07:00.455Z,29.37
2018-10-17T22:09:29.005Z,25.97
2018-10-17T22:11:57.547Z,27.00
2018-10-17T22:14:26.141Z,25.00
2018-10-17T22:17:00.086Z,24.40
2018-10-17T22:19:30.025Z,24.73
2018-10-17T22:21:58.611Z,24.87
2018-10-17T22:24:27.174Z,25.37
2018-10-17T22:26:55.977Z,27.47
2018-10-17T22:29:24.557Z,28.07
2018-10-17T22:31:53.566Z,28.70
2018-10-17T22:34:22.305Z,27.37
2018-10-17T22:36:50.889Z,28.67
2018-10-17T22:39:19.402Z,27.90
2018-10-17T22:41:47.963Z,27.00
2018-10-17T22:44:16.637Z,26.47
2018-10-17T22:46:45.111Z,27.13
2018-10-17T22:49:13.638Z,23.93
2018-10-17T22:51:42.181Z,21.97
2018-10-17T22:54:10.702Z,26.57
2018-10-17T22:56:39.788Z,24.33
2018-10-17T22:59:08.297Z,24.77
2018-10-17T23:01:37.670Z,24.70
2018-10-17T23:04:06.713Z,23.57
2018-10-17T23:06:35.303Z,27.40
2018-10-17T23:09:06.008Z,23.93
2018-10-17T23:11:34.579Z,27.33
2018-10-17T23:14:03.176Z,29.40
2018-10-17T23:16:31.706Z,28.23
2018-10-17T23:19:00.227Z,29.23
2018-10-17T23:21:28.823Z,27.30
2018-10-17T23:23:57.351Z,28.90
2018-10-17T23:26:25.929Z,27.40
2018-10-17T23:28:54.732Z,27.37
2018-10-17T23:31:24.371Z,31.53
2018-10-17T23:33:53.234Z,26.10
2018-10-17T23:36:22.276Z,26.30
2018-10-17T23:38:51.119Z,28.33
2018-10-17T23:41:19.757Z,29.40
2018-10-17T23:43:48.300Z,31.87
2018-10-17T23:46:16.813Z,28.30
2018-10-17T23:48:45.417Z,29.13
2018-10-17T23:51:13.949Z,28.07
2018-10-17T23:53:42.527Z,30.30
2018-10-17T23:56:11.133Z,27.13
2018-10-17T23:58:39.632Z,28.10
